Santa Venetia, California
Current Conditions -  °F | °C
As of 12:15 AM on Tuesday 27 Jan 2015 (Local Time) from KO69 Reporting Station
Scattered Clouds Scattered Clouds  
Wind Chill: 48°   Ceiling: Unl
Heat Index: 48°   Visibility: 10mi
Dew Point: 46°   Wind: 0mph
Humidity: 93%   Direction: NA
Pressure: 30.03"   Gusts: NA
Location:  38.0232°N, 122.547°W
Report Text: KO69 270815Z AUTO 00000KT 10SM SCT022 09/08 A3003 RMK AO1
Loading
Personal Weather Stations






























Interactive Weather Map New forecast layout! Learn more

10-Day Weather Forecast

Advertisements
Track Severe Weather on mobile